createdAt,value
2023-02-08T00:01:29.245Z,103370.31
2023-02-08T00:03:59.498Z,103373.84
2023-02-08T00:06:28.167Z,103370.19
2023-02-08T00:08:56.417Z,103376.47
2023-02-08T00:11:24.211Z,103384.47
2023-02-08T00:13:52.963Z,103380.03
2023-02-08T00:16:21.166Z,103385.28
2023-02-08T00:18:49.556Z,103387.03
2023-02-08T00:21:18.159Z,103386.28
2023-02-08T00:23:49.412Z,103385.34
2023-02-08T00:26:17.922Z,103382.72
2023-02-08T00:28:45.925Z,103387.16
2023-02-08T00:31:17.328Z,103388.88
2023-02-08T00:33:48.526Z,103386.31
2023-02-08T00:36:19.299Z,103395.19
2023-02-08T00:38:47.756Z,103395.09
2023-02-08T00:41:16.842Z,103404.00
2023-02-08T00:43:46.080Z,103408.47
2023-02-08T00:46:14.039Z,103411.06
2023-02-08T00:48:45.373Z,103410.19
2023-02-08T00:51:15.932Z,103414.59
2023-02-08T00:53:45.276Z,103422.53
2023-02-08T00:56:14.541Z,103415.56
2023-02-08T00:58:44.392Z,103414.63
2023-02-08T01:01:13.571Z,103408.50
2023-02-08T01:03:43.192Z,103419.06
2023-02-08T01:06:18.078Z,103424.41
2023-02-08T01:08:47.214Z,103420.88
2023-02-08T01:11:22.604Z,103420.91
2023-02-08T01:13:50.626Z,103419.09
2023-02-08T01:16:44.512Z,103425.34
2023-02-08T01:19:20.746Z,103427.94
2023-02-08T01:21:50.359Z,103427.97
2023-02-08T01:24:18.671Z,103433.31
2023-02-08T01:26:46.795Z,103441.22
2023-02-08T01:29:14.623Z,103447.41
2023-02-08T01:31:43.509Z,103435.03
2023-02-08T01:34:12.360Z,103443.91
2023-02-08T01:36:40.404Z,103449.25
2023-02-08T01:39:10.943Z,103447.50
2023-02-08T01:41:44.684Z,103459.84
2023-02-08T01:44:12.548Z,103456.34
2023-02-08T01:46:45.484Z,103470.44
2023-02-08T01:49:17.838Z,103477.50
2023-02-08T01:52:07.225Z,103465.16
2023-02-08T01:54:41.466Z,103469.56
2023-02-08T01:57:10.933Z,103480.19
2023-02-08T01:59:56.648Z,103481.06
2023-02-08T02:02:25.154Z,103479.31
2023-02-08T02:04:54.827Z,103480.16
2023-02-08T02:07:23.281Z,103488.09
2023-02-08T02:10:06.739Z,103485.44
2023-02-08T02:12:36.825Z,103492.53
2023-02-08T02:15:07.076Z,103502.25
2023-02-08T02:17:38.128Z,103499.59
2023-02-08T02:20:37.995Z,103503.13
2023-02-08T02:23:26.252Z,103504.88
2023-02-08T02:26:20.676Z,103509.31
2023-02-08T02:29:12.078Z,103515.47
2023-02-08T02:31:51.877Z,103510.16
2023-02-08T02:34:46.671Z,103510.19
2023-02-08T02:37:53.624Z,103517.22
2023-02-08T02:40:35.324Z,103525.19
2023-02-08T02:43:41.753Z,103531.31
2023-02-08T02:46:32.230Z,103523.41
2023-02-08T02:49:05.154Z,103540.19
2023-02-08T02:51:43.035Z,103545.44
2023-02-08T02:54:13.962Z,103533.09
2023-02-08T02:56:46.581Z,103538.41
2023-02-08T02:59:15.722Z,103540.13
2023-02-08T03:01:44.632Z,103541.91
2023-02-08T03:04:36.564Z,103548.06
2023-02-08T03:07:17.715Z,103555.97
2023-02-08T03:10:00.752Z,103557.75
2023-02-08T03:12:50.285Z,103553.38
2023-02-08T03:15:50.673Z,103557.75
2023-02-08T03:18:18.490Z,103555.97
2023-02-08T03:21:04.901Z,103556.00
2023-02-08T03:23:42.293Z,103555.94
2023-02-08T03:26:18.565Z,103557.72
2023-02-08T03:29:36.035Z,103550.69
2023-02-08T03:32:12.379Z,103559.47
2023-02-08T03:34:54.638Z,103560.38
2023-02-08T03:37:35.209Z,103563.84
2023-02-08T03:40:28.125Z,103571.81
2023-02-08T03:43:00.103Z,103571.81
2023-02-08T03:45:33.976Z,103579.72
2023-02-08T03:48:04.285Z,103574.47
2023-02-08T03:50:35.540Z,103573.56
2023-02-08T03:53:03.991Z,103577.97
2023-02-08T03:55:34.063Z,103589.41
2023-02-08T03:58:41.332Z,103589.41
2023-02-08T04:01:18.355Z,103584.16
2023-02-08T04:03:46.976Z,103589.44
2023-02-08T04:06:15.873Z,103599.16
2023-02-08T04:08:45.751Z,103602.63
2023-02-08T04:11:16.213Z,103603.47
2023-02-08T04:13:44.085Z,103606.13
2023-02-08T04:16:16.545Z,103602.59
2023-02-08T04:18:44.770Z,103607.00
2023-02-08T04:21:12.766Z,103614.94
2023-02-08T04:23:43.501Z,103618.38
2023-02-08T04:26:11.440Z,103623.75
2023-02-08T04:28:39.811Z,103625.50
2023-02-08T04:31:08.178Z,103635.19
2023-02-08T04:33:37.116Z,103633.41
2023-02-08T04:36:05.263Z,103637.78
2023-02-08T04:38:34.958Z,103641.38
2023-02-08T04:41:02.975Z,103633.44
2023-02-08T04:43:30.858Z,103648.38
2023-02-08T04:46:00.026Z,103657.19
2023-02-08T04:48:28.492Z,103655.38
2023-02-08T04:50:57.627Z,103652.78
2023-02-08T04:53:26.024Z,103657.19
2023-02-08T04:55:54.563Z,103667.84
2023-02-08T04:58:24.300Z,103670.38
2023-02-08T05:00:52.713Z,103663.22
2023-02-08T05:03:22.814Z,103672.13
2023-02-08T05:06:00.570Z,103668.63
2023-02-08T05:08:29.777Z,103674.72
2023-02-08T05:10:59.647Z,103683.53
2023-02-08T05:13:29.917Z,103682.66
2023-02-08T05:15:58.602Z,103685.41
2023-02-08T05:18:34.751Z,103684.38
2023-02-08T05:21:05.038Z,103687.97
2023-02-08T05:23:36.172Z,103691.44
2023-02-08T05:26:09.892Z,103685.47
2023-02-08T05:28:38.959Z,103694.28
2023-02-08T05:31:36.552Z,103684.59
2023-02-08T05:34:05.596Z,103701.31
2023-02-08T05:36:34.525Z,103700.44
2023-02-08T05:39:12.187Z,103700.47
2023-02-08T05:41:42.153Z,103701.34
2023-02-08T05:44:14.816Z,103700.47
2023-02-08T05:46:44.063Z,103697.97
2023-02-08T05:49:12.388Z,103709.41
2023-02-08T05:51:43.517Z,103705.81
2023-02-08T05:54:13.094Z,103716.53
2023-02-08T05:56:42.067Z,103712.94
2023-02-08T05:59:11.779Z,103714.81
2023-02-08T06:01:43.495Z,103720.94
2023-02-08T06:04:15.155Z,103713.09
2023-02-08T06:06:43.734Z,103720.19
2023-02-08T06:09:14.576Z,103717.44
2023-02-08T06:11:55.904Z,103722.84
2023-02-08T06:14:25.375Z,103725.47
2023-02-08T06:16:54.570Z,103728.13
2023-02-08T06:19:28.320Z,103723.78
2023-02-08T06:22:06.038Z,103731.78
2023-02-08T06:24:36.559Z,103737.03
2023-02-08T06:27:04.752Z,103729.16
2023-02-08T06:29:36.801Z,103739.72
2023-02-08T06:32:16.470Z,103738.91
2023-02-08T06:34:45.304Z,103737.16
2023-02-08T06:37:14.249Z,103743.31
2023-02-08T06:39:43.399Z,103743.38
2023-02-08T06:42:11.748Z,103746.03
2023-02-08T06:44:51.413Z,103752.22
2023-02-08T06:47:28.590Z,103756.63
2023-02-08T06:49:59.883Z,103761.03
2023-02-08T06:52:28.952Z,103775.16
2023-02-08T06:55:00.420Z,103776.94
2023-02-08T06:57:47.024Z,103760.16
2023-02-08T07:00:18.490Z,103766.38
2023-02-08T07:02:49.737Z,103761.97
2023-02-08T07:05:19.489Z,103766.38
2023-02-08T07:07:49.119Z,103761.94
2023-02-08T07:10:18.619Z,103771.69
2023-02-08T07:12:48.068Z,103747.84
2023-02-08T07:15:21.240Z,103769.06
2023-02-08T07:17:50.536Z,103769.06
2023-02-08T07:20:22.545Z,103769.94
2023-02-08T07:22:56.619Z,103777.88
2023-02-08T07:25:25.605Z,103775.25
2023-02-08T07:27:54.192Z,103770.78
2023-02-08T07:30:22.885Z,103769.91
2023-02-08T07:32:52.505Z,103774.31
2023-02-08T07:35:22.207Z,103776.91
2023-02-08T07:37:52.867Z,103782.19
2023-02-08T07:40:37.216Z,103778.63
2023-02-08T07:46:14.834Z,103775.06
2023-02-08T07:48:43.082Z,103780.34
2023-02-08T07:51:12.717Z,103790.09
2023-02-08T07:53:40.652Z,103775.03
2023-02-08T07:56:10.569Z,103764.28
2023-02-08T07:58:38.813Z,103769.50
2023-02-08T08:01:21.068Z,103778.41
2023-02-08T08:03:55.142Z,103783.63
2023-02-08T08:06:23.198Z,103780.94
2023-02-08T08:08:51.370Z,103788.88
2023-02-08T08:11:20.240Z,103778.19
2023-02-08T08:13:48.887Z,103781.78
2023-02-08T08:16:16.854Z,103785.34
2023-02-08T08:18:48.963Z,103779.81
2023-02-08T08:21:16.930Z,103794.00
2023-02-08T08:23:44.671Z,103793.25
2023-02-08T08:26:21.504Z,103796.38
2023-02-08T08:28:49.210Z,103804.53
2023-02-08T08:31:21.714Z,103813.47
2023-02-08T08:33:49.474Z,103805.31
2023-02-08T08:36:17.431Z,103815.06
2023-02-08T08:38:45.145Z,103810.53
2023-02-08T08:41:15.573Z,103805.00
2023-02-08T08:43:43.844Z,103796.91
2023-02-08T08:46:12.106Z,103807.69
2023-02-08T08:48:40.179Z,103802.09
2023-02-08T08:51:08.278Z,103801.16
2023-02-08T08:53:37.245Z,103799.53
2023-02-08T08:56:06.091Z,103791.09
2023-02-08T08:58:37.420Z,103784.81
2023-02-08T09:01:07.622Z,103786.72
2023-02-08T09:03:36.599Z,103777.63
2023-02-08T09:06:05.765Z,103781.00
2023-02-08T09:08:34.822Z,103772.00
2023-02-08T09:11:10.478Z,103781.69
2023-02-08T09:13:38.726Z,103776.16
2023-02-08T09:16:12.967Z,103779.53
2023-02-08T09:18:41.285Z,103782.28
2023-02-08T09:21:22.969Z,103780.41
2023-02-08T09:23:51.649Z,103769.28
2023-02-08T09:26:20.134Z,103774.16
2023-02-08T09:28:47.929Z,103771.50
2023-02-08T09:31:18.480Z,103775.53
2023-02-08T09:33:47.061Z,103773.63
2023-02-08T09:36:15.259Z,103775.28
2023-02-08T09:38:43.062Z,103769.91
2023-02-08T09:41:42.940Z,103769.91
2023-02-08T09:44:24.366Z,103779.31
2023-02-08T09:47:16.562Z,103775.81
2023-02-08T09:49:57.579Z,103774.97
2023-02-08T09:52:47.797Z,103775.22
2023-02-08T09:55:32.891Z,103767.09
2023-02-08T09:58:01.538Z,103777.91
2023-02-08T10:00:36.055Z,103765.31
2023-02-08T10:03:03.952Z,103775.16
2023-02-08T10:05:32.214Z,103764.03
2023-02-08T10:08:00.365Z,103765.81
2023-02-08T10:10:37.928Z,103757.47
2023-02-08T10:13:40.669Z,103745.66
2023-02-08T10:16:14.223Z,103759.41
2023-02-08T10:19:00.724Z,103770.22
2023-02-08T10:21:56.490Z,103755.13
2023-02-08T10:25:08.933Z,103765.19
2023-02-08T10:28:19.261Z,103772.59
2023-02-08T10:30:53.125Z,103756.03
2023-02-08T10:33:33.065Z,103756.19
2023-02-08T10:36:15.195Z,103773.56
2023-02-08T10:38:46.687Z,103761.34
2023-02-08T10:41:18.831Z,103759.03
2023-02-08T10:43:51.741Z,103755.47
2023-02-08T10:46:56.516Z,103747.72
2023-02-08T10:49:27.673Z,103754.75
2023-02-08T10:51:55.358Z,103754.97
2023-02-08T10:54:23.059Z,103750.22
2023-02-08T10:56:58.534Z,103744.38
2023-02-08T10:59:57.099Z,103757.69
2023-02-08T11:02:26.909Z,103753.34
2023-02-08T11:05:21.611Z,103746.34
2023-02-08T11:08:05.755Z,103757.59
2023-02-08T11:10:33.931Z,103757.81
2023-02-08T11:13:14.596Z,103752.41
2023-02-08T11:15:49.287Z,103740.31
2023-02-08T11:18:50.386Z,103745.25
2023-02-08T11:21:26.433Z,103732.72
2023-02-08T11:23:55.237Z,103741.34
2023-02-08T11:26:39.437Z,103746.53
2023-02-08T11:29:16.678Z,103734.06
2023-02-08T11:32:02.711Z,103746.50
2023-02-08T11:34:39.049Z,103743.13
2023-02-08T11:37:21.086Z,103749.75
2023-02-08T11:39:56.561Z,103726.00
2023-02-08T11:42:36.275Z,103741.13
2023-02-08T11:45:04.291Z,103744.28
2023-02-08T11:47:33.455Z,103751.47
2023-02-08T11:50:07.609Z,103740.56
2023-02-08T11:52:40.916Z,103744.13
2023-02-08T11:55:17.616Z,103725.69
2023-02-08T11:58:04.797Z,103737.38
2023-02-08T12:00:37.358Z,103737.44
2023-02-08T12:03:15.914Z,103750.31
2023-02-08T12:06:05.230Z,103737.28
2023-02-08T12:08:44.674Z,103742.28
2023-02-08T12:11:27.041Z,103733.91
2023-02-08T12:14:15.997Z,103722.66
2023-02-08T12:17:16.333Z,103741.03
2023-02-08T12:20:17.672Z,103735.84
2023-02-08T12:23:14.470Z,103740.47
2023-02-08T12:26:10.205Z,103736.44
2023-02-08T12:28:44.260Z,103735.94
2023-02-08T12:31:39.473Z,103747.56
2023-02-08T12:34:21.377Z,103751.28
2023-02-08T12:37:22.554Z,103750.53
2023-02-08T12:40:30.411Z,103740.34
2023-02-08T12:43:00.821Z,103744.59
2023-02-08T12:45:51.386Z,103748.22
2023-02-08T12:48:50.054Z,103755.31
2023-02-08T12:51:38.318Z,103748.59
2023-02-08T12:54:11.726Z,103754.34
2023-02-08T12:56:46.581Z,103741.38
2023-02-08T12:59:42.615Z,103757.31
2023-02-08T13:02:26.210Z,103758.97
2023-02-08T13:04:54.565Z,103751.22
2023-02-08T13:07:33.954Z,103749.25
2023-02-08T13:10:26.726Z,103750.06
2023-02-08T13:13:24.166Z,103741.59
2023-02-08T13:16:09.583Z,103748.72
2023-02-08T13:18:46.590Z,103751.16
2023-02-08T13:21:16.278Z,103737.56
2023-02-08T13:23:52.446Z,103739.97
2023-02-08T13:26:32.062Z,103756.50
2023-02-08T13:29:02.573Z,103765.50
2023-02-08T13:31:41.608Z,103766.72
2023-02-08T13:34:24.248Z,103767.00
2023-02-08T13:37:03.643Z,103771.44
2023-02-08T13:39:37.555Z,103762.28
2023-02-08T13:42:06.656Z,103766.44
2023-02-08T13:44:38.656Z,103756.47
2023-02-08T13:47:06.956Z,103753.41
2023-02-08T13:49:50.381Z,103750.34
2023-02-08T13:52:51.208Z,103755.91
2023-02-08T13:55:32.287Z,103748.06
2023-02-08T13:58:01.861Z,103746.34
2023-02-08T14:00:55.373Z,103749.44
2023-02-08T14:03:28.021Z,103761.91
2023-02-08T14:06:04.906Z,103761.56
2023-02-08T14:08:40.283Z,103770.22
2023-02-08T14:11:20.328Z,103771.34
2023-02-08T14:13:49.319Z,103770.09
2023-02-08T14:16:32.127Z,103757.94
2023-02-08T14:19:01.431Z,103773.75
2023-02-08T14:22:13.350Z,103769.72
2023-02-08T14:24:48.335Z,103761.81
2023-02-08T14:27:41.147Z,103758.63
2023-02-08T14:30:19.497Z,103762.13
2023-02-08T14:33:01.925Z,103760.63
2023-02-08T14:35:30.380Z,103755.63
2023-02-08T14:38:36.801Z,103758.19
2023-02-08T14:41:04.594Z,103758.03
2023-02-08T14:43:39.317Z,103766.53
2023-02-08T14:46:37.768Z,103765.59
2023-02-08T14:49:18.166Z,103769.31
2023-02-08T14:51:49.430Z,103767.75
2023-02-08T14:54:27.600Z,103766.16
2023-02-08T14:56:58.333Z,103767.84
2023-02-08T14:59:27.849Z,103764.38
2023-02-08T15:02:03.366Z,103778.72
2023-02-08T15:04:31.243Z,103774.25
2023-02-08T15:07:17.143Z,103782.56
2023-02-08T15:09:44.895Z,103786.25
2023-02-08T15:12:24.456Z,103784.41
2023-02-08T15:14:54.605Z,103778.25
2023-02-08T15:17:35.306Z,103784.59
2023-02-08T15:20:06.317Z,103782.97
2023-02-08T15:22:38.602Z,103790.22
2023-02-08T15:25:23.168Z,103783.97
2023-02-08T15:27:53.224Z,103782.31
2023-02-08T15:30:28.781Z,103784.91
2023-02-08T15:32:56.580Z,103779.75
2023-02-08T15:35:26.045Z,103785.97
2023-02-08T15:37:54.089Z,103786.94
2023-02-08T15:40:27.249Z,103784.94
2023-02-08T15:42:55.201Z,103783.31
2023-02-08T15:45:24.710Z,103785.28
2023-02-08T15:47:52.368Z,103782.00
2023-02-08T15:50:21.364Z,103790.72
2023-02-08T15:52:58.027Z,103787.25
2023-02-08T15:55:26.543Z,103788.06
2023-02-08T15:57:59.861Z,103800.59
2023-02-08T16:00:32.300Z,103797.81
2023-02-08T16:03:08.600Z,103797.72
2023-02-08T16:05:36.439Z,103797.81
2023-02-08T16:08:04.390Z,103810.31
2023-02-08T16:10:53.266Z,103810.41
2023-02-08T16:13:26.550Z,103817.47
2023-02-08T16:16:14.083Z,103812.19
2023-02-08T16:18:50.432Z,103814.91
2023-02-08T16:21:27.121Z,103812.34
2023-02-08T16:23:59.435Z,103822.91
2023-02-08T16:26:29.244Z,103819.50
2023-02-08T16:29:00.746Z,103816.75
2023-02-08T16:31:30.317Z,103817.84
2023-02-08T16:34:07.518Z,103826.75
2023-02-08T16:36:44.477Z,103817.94
2023-02-08T16:39:15.038Z,103812.56
2023-02-08T16:42:06.443Z,103801.03
2023-02-08T16:44:41.475Z,103817.00
2023-02-08T16:47:26.571Z,103819.72
2023-02-08T16:49:54.355Z,103824.22
2023-02-08T16:52:22.059Z,103824.19
2023-02-08T16:54:49.743Z,103823.38
2023-02-08T16:57:17.306Z,103815.53
2023-02-08T16:59:45.372Z,103824.41
2023-02-08T17:02:13.502Z,103834.25
2023-02-08T17:04:41.424Z,103842.34
2023-02-08T17:07:17.902Z,103835.25
2023-02-08T17:09:45.570Z,103829.06
2023-02-08T17:12:21.830Z,103835.31
2023-02-08T17:14:54.358Z,103831.03
2023-02-08T17:17:23.744Z,103840.88
2023-02-08T17:19:52.154Z,103834.72
2023-02-08T17:22:20.512Z,103828.50
2023-02-08T17:24:48.566Z,103837.41
2023-02-08T17:27:16.643Z,103838.34
2023-02-08T17:29:44.406Z,103836.69
2023-02-08T17:32:12.858Z,103842.94
2023-02-08T17:34:41.626Z,103834.88
2023-02-08T17:37:11.050Z,103840.19
2023-02-08T17:39:38.559Z,103841.13
2023-02-08T17:42:06.508Z,103837.69
2023-02-08T17:44:34.391Z,103843.91
2023-02-08T17:47:02.168Z,103841.34
2023-02-08T17:49:35.061Z,103840.47
2023-02-08T17:52:02.994Z,103849.25
2023-02-08T17:54:31.444Z,103852.78
2023-02-08T17:57:01.700Z,103856.34
2023-02-08T17:59:29.660Z,103864.31
2023-02-08T18:01:58.977Z,103860.81
2023-02-08T18:04:26.779Z,103861.69
2023-02-08T18:06:54.398Z,103857.31
2023-02-08T18:09:22.077Z,103869.75
2023-02-08T18:11:50.187Z,103873.28
2023-02-08T18:14:19.005Z,103876.00
2023-02-08T18:16:47.515Z,103868.91
2023-02-08T18:19:15.295Z,103871.56
2023-02-08T18:21:43.618Z,103874.25
2023-02-08T18:24:12.018Z,103878.69
2023-02-08T18:26:39.643Z,103876.91
2023-02-08T18:29:07.452Z,103869.84
2023-02-08T18:31:35.600Z,103875.13
2023-02-08T18:34:03.286Z,103877.81
2023-02-08T18:36:30.974Z,103873.38
2023-02-08T18:38:58.899Z,103880.47
2023-02-08T18:41:28.588Z,103872.50
2023-02-08T18:43:58.262Z,103872.53
2023-02-08T18:46:27.087Z,103872.53
2023-02-08T18:48:55.246Z,103870.78
2023-02-08T18:51:23.722Z,103869.91
2023-02-08T18:53:52.818Z,103882.28
2023-02-08T18:56:23.215Z,103882.28
2023-02-08T18:58:52.882Z,103879.63
2023-02-08T19:01:23.918Z,103883.16
2023-02-08T19:03:54.533Z,103876.06
2023-02-08T19:06:24.899Z,103881.38
2023-02-08T19:08:54.026Z,103881.38
2023-02-08T19:11:22.544Z,103886.72
2023-02-08T19:13:51.045Z,103890.22
2023-02-08T19:16:19.104Z,103898.19
2023-02-08T19:18:48.485Z,103907.03
2023-02-08T19:21:17.439Z,103905.28
2023-02-08T19:23:47.620Z,103906.16
2023-02-08T19:26:18.565Z,103908.72
2023-02-08T19:28:46.345Z,103890.13
2023-02-08T19:31:15.362Z,103886.56
2023-02-08T19:33:44.737Z,103881.28
2023-02-08T19:36:22.751Z,103897.22
2023-02-08T19:38:50.643Z,103891.91
2023-02-08T19:41:45.525Z,103899.84
2023-02-08T19:44:15.109Z,103905.13
2023-02-08T19:46:44.918Z,103902.47
2023-02-08T19:49:12.906Z,103898.91
2023-02-08T19:51:40.565Z,103896.22
2023-02-08T19:54:10.299Z,103884.72
2023-02-08T19:56:38.399Z,103886.50
2023-02-08T19:59:06.949Z,103890.03
2023-02-08T20:01:35.634Z,103882.94
2023-02-08T20:04:05.926Z,103882.94
2023-02-08T20:06:35.121Z,103895.34
2023-02-08T20:09:06.992Z,103894.41
2023-02-08T20:11:42.615Z,103897.06
2023-02-08T20:14:18.831Z,103883.78
2023-02-08T20:16:46.569Z,103889.06
2023-02-08T20:19:14.498Z,103889.91
2023-02-08T20:21:44.567Z,103896.03
2023-02-08T20:24:13.176Z,103888.94
2023-02-08T20:26:41.986Z,103896.00
2023-02-08T20:29:09.833Z,103889.84
2023-02-08T20:31:38.265Z,103891.56
2023-02-08T20:34:07.519Z,103890.72
2023-02-08T20:36:38.767Z,103894.16
2023-02-08T20:39:07.301Z,103887.00
2023-02-08T20:41:35.842Z,103893.22
2023-02-08T20:44:03.493Z,103887.97
2023-02-08T20:46:34.666Z,103886.97
2023-02-08T20:49:03.054Z,103878.25
2023-02-08T20:51:31.417Z,103881.78
2023-02-08T20:53:59.952Z,103879.94
2023-02-08T20:56:32.727Z,103879.84
2023-02-08T20:59:05.194Z,103878.13
2023-02-08T21:01:34.731Z,103868.50
2023-02-08T21:04:02.545Z,103872.91
2023-02-08T21:06:32.479Z,103882.56
2023-02-08T21:09:03.029Z,103883.41
2023-02-08T21:11:33.593Z,103880.66
2023-02-08T21:14:01.342Z,103882.44
2023-02-08T21:16:31.685Z,103880.72
2023-02-08T21:18:59.740Z,103880.75
2023-02-08T21:21:28.285Z,103882.50
2023-02-08T21:23:57.939Z,103874.50
2023-02-08T21:26:26.107Z,103874.50
2023-02-08T21:28:55.334Z,103873.63
2023-02-08T21:31:23.990Z,103871.84
2023-02-08T21:33:52.145Z,103873.59
2023-02-08T21:36:22.585Z,103877.94
2023-02-08T21:38:50.491Z,103877.09
2023-02-08T21:41:25.916Z,103883.19
2023-02-08T21:43:54.911Z,103877.81
2023-02-08T21:46:24.834Z,103872.50
2023-02-08T21:49:11.531Z,103879.56
2023-02-08T21:51:57.788Z,103879.53
2023-02-08T21:54:41.556Z,103867.16
2023-02-08T21:57:17.933Z,103868.09
2023-02-08T21:59:49.383Z,103870.75
2023-02-08T22:02:23.431Z,103868.09
2023-02-08T22:05:01.088Z,103860.22
2023-02-08T22:07:29.173Z,103872.53
2023-02-08T22:09:57.456Z,103868.03
2023-02-08T22:12:25.676Z,103869.78
2023-02-08T22:14:57.756Z,103855.63
2023-02-08T22:17:25.360Z,103850.38
2023-02-08T22:19:52.983Z,103853.91
2023-02-08T22:22:20.659Z,103853.84
2023-02-08T22:24:48.267Z,103849.34
2023-02-08T22:27:16.484Z,103844.19
2023-02-08T22:29:44.079Z,103844.25
2023-02-08T22:32:16.984Z,103842.50
2023-02-08T22:34:45.856Z,103836.28
2023-02-08T22:37:13.633Z,103838.91
2023-02-08T22:39:41.430Z,103832.72
2023-02-08T22:42:12.225Z,103828.25
2023-02-08T22:44:40.804Z,103829.19
2023-02-08T22:47:08.637Z,103829.16
2023-02-08T22:49:36.537Z,103829.88
2023-02-08T22:52:05.738Z,103826.34
2023-02-08T22:54:33.416Z,103833.44
2023-02-08T22:57:01.437Z,103837.72
2023-02-08T22:59:29.108Z,103839.50
2023-02-08T23:01:57.663Z,103836.94
2023-02-08T23:04:25.335Z,103842.97
2023-02-08T23:06:53.431Z,103841.19
2023-02-08T23:09:21.242Z,103840.44
2023-02-08T23:11:49.068Z,103836.84
2023-02-08T23:14:16.832Z,103839.50
2023-02-08T23:16:44.970Z,103835.03
2023-02-08T23:19:16.301Z,103837.63
2023-02-08T23:21:44.225Z,103835.03
2023-02-08T23:24:11.879Z,103837.53
2023-02-08T23:26:39.565Z,103838.50
2023-02-08T23:29:07.379Z,103828.78
2023-02-08T23:31:35.274Z,103836.69
2023-02-08T23:34:03.117Z,103846.31
2023-02-08T23:36:31.458Z,103836.50
2023-02-08T23:38:59.034Z,103827.78
2023-02-08T23:41:26.668Z,103841.88
2023-02-08T23:43:54.399Z,103834.72
2023-02-08T23:46:26.737Z,103832.06
2023-02-08T23:48:54.507Z,103830.19
2023-02-08T23:51:22.866Z,103821.44
2023-02-08T23:53:50.966Z,103830.13
2023-02-08T23:56:22.571Z,103828.50
2023-02-08T23:58:51.126Z,103822.31
